Create Custom Reports and Graphics: Custom Report

Belmont 8000'

Squaw Valley

8/18/22 7:30 PM (-07:00)
Updated Every 15 Minutes
Temp 62.5 °F   2.3
RH 41 %   22
Dew Pt 38.3 °F   9.4
Wet Bulb 48.9 °F   3.7
Wind Dir WNW | 292 °
Wind Spd 7.7 mph   5.4
Wind Gust 19.1 mph   9.5
WindChill 63.1 °F   2.4
Daily Min Temp 51.2 °F   6.1
Daily Max Temp 70.9 °F   5.2
Latest Rain 0.00 In
Daily Rain 0.00 In

Last 24 Hours

OV-Belmont 8000'

Hourly Data | America/Los_Angeles
as of 8/18/22 7:38 PM PDT
Date & Time Temp (°F) RH (%) Dew Pt (°F) Wet Bulb (°F) Wind Dir (°) Wind Spd (mph) Wind Gust (mph) WindChill (°F) Latest Rain (In) Daily Min Temp (°F) Daily Max Temp (°F) Daily Rain (In)
8/18/22 - 1900 64.4 38 38.1 49.6 W | 279 7.3 18.9 66.0 0.00 51.2 70.9 0.00
8/18/22 - 1800 68.9 34 39.5 51.9 W | 260 6.9 19.8 68.0 0.00 51.2 70.9 0.00
8/18/22 - 1700 68.0 34 38.7 51.3 W | 274 7.4 18.4 68.1 0.00 51.2 70.9 0.00
8/18/22 - 1600 66.5 39 40.8 51.5 WNW | 285 8.6 22.3 67.3 0.00 51.2 70.9 0.00
8/18/22 - 1500 70.7 34 41.3 53.4 WNW | 283 7.7 18.2 68.6 0.00 51.2 70.7 0.00
8/18/22 - 1400 66.7 38 40.2 51.3 SW | 228 8.2 17.2 68.6 0.00 51.2 70.1 0.00
8/18/22 - 1300 68.5 41 43.8 53.7 W | 268 6.2 16.9 64.1 0.00 51.2 69.7 0.00
8/18/22 - 1200 64.6 44 42.1 51.4 W | 268 6.5 15.2 67.2 0.00 51.2 69.7 0.00
8/18/22 - 1100 67.5 40 42.6 52.7 W | 260 4.8 14.1 66.8 0.00 51.2 68.5 0.00
8/18/22 - 1000 65.8 44 43.2 52.4 WSW | 256 2.3 10.5 63.9 0.00 51.2 65.9 0.00
8/18/22 - 0900 61.1 76 53.4 56.1 SSE | 158 0.4 3.9 59.2 0.00 51.2 61.1 0.00
8/18/22 - 0800 56.9 74 48.8 51.9 S | 185 0.9 4.5 55.3 0.00 51.2 56.9 0.00
8/18/22 - 0700 54.0 82 48.5 50.7 SW | 214 1.6 5.2 52.5 0.00 51.2 55.4 0.00
8/18/22 - 0600 52.2 83 47.4 49.3 S | 177 0.7 3.7 52.5 0.00 51.4 55.4 0.00
8/18/22 - 0500 52.8 83 47.7 49.7 SE | 127 0.6 2.9 53.1 0.00 52.5 55.4 0.00
8/18/22 - 0400 53.6 81 48.0 50.2 NW | 326 0.0 1.2 53.1 0.00 52.5 55.4 0.00
8/18/22 - 0300 53.3 82 47.8 49.9 SSW | 200 0.0 0.9 53.2 0.00 52.5 55.4 0.00
8/18/22 - 0200 53.7 78 46.9 49.6 SW | 216 0.3 4.1 54.5 0.00 53.6 55.4 0.00
8/18/22 - 0100 54.7 77 47.8 50.5 SSE | 168 1.0 5.2 55.0 0.00 54.5 55.4 0.00
8/18/22 - 0000 55.3 72 46.6 50.0 NE | 34 3.2 8.6 55.0 0.00 51.9 76.1 0.14
8/17/22 - 2300 53.7 79 47.3 49.9 NNE | 25 2.8 8.5 53.6 0.00 51.9 76.1 0.14
8/17/22 - 2200 54.9 78 48.0 50.7 ENE | 70 4.5 14.9 53.7 0.01 51.9 76.1 0.14
8/17/22 - 2100 53.3 98 52.7 52.9 SE | 136 3.6 13.3 55.0 0.10 53.3 76.1 0.13
8/17/22 - 2000 57.3 78 50.4 53.0 S | 178 4.3 13.4 59.8 0.00 57.3 76.1 0.03
8/17/22 - 1900 61.3 64 49.0 53.6 NNW | 343 3.3 9.5 63.5 0.00 57.3 76.1 0.03
Max 70.7 98 53.4 56.1 - 8.6 22.3 68.6 0.10 57.3 76.1 0.14
Avg 60.0 63 45.6 51.5 - 3.7 10.9 59.9 0.00 - - -
Min 52.2 34 38.1 49.3 - 0.0 0.9 52.5 0.00 51.2 55.4 0.00
Total - - - - - - - - 0.11 - - -

Last 30 Days

OV-Belmont 8000'

Daily Data | America/Los_Angeles
as of 8/18/22 7:38 PM PDT
Date Daily Max Temp (°F) Time of Max Temp Daily Min Temp (°F) Time of Min Temp Daily Rain (In) Seasonal Rainfall (In) Wind Spd (mph) Daily Max Wind (mph) Time of Max Wind Max Wind Dir (°) Max RH (%) Min RH (%) Wet Bulb (°F) WetB Hrs <28F (hrs) MinBV Day (V)
8/17/22 76.1 1123 51.9 2109 0.14 176.50 3.1 16.6 1541 SW | 230 98 26 51.6 0.0 13.0
8/16/22 77.8 1444 59.9 0545 0.00 176.40 2.6 16.4 1819 S | 174 38 18 49.0 0.0 13.0
8/15/22 78.0 1228 56.4 0330 0.00 176.40 4.3 17.9 1546 WSW | 246 30 5 45.3 0.0 13.0
8/14/22 72.0 1332 56.2 0451 0.00 176.40 6.4 20.4 1652 W | 263 34 8 43.5 0.0 13.0
8/13/22 75.2 1509 53.4 0615 0.00 176.40 7.1 19.6 0202 SSW | 210 33 9 43.3 0.0 13.0
8/12/22 69.2 1531 53.4 0629 0.00 176.40 8.1 22.9 0337 SSW | 211 59 14 45.8 0.0 13.0
8/11/22 69.6 1710 54.0 0613 0.00 176.40 8.0 22.0 0206 SSW | 206 68 26 48.9 0.0 13.0
8/10/22 67.7 1416 53.5 0549 0.00 176.40 9.2 24.1 1003 SW | 218 68 42 48.7 0.0 13.1
8/9/22 69.3 1212 54.9 2031 0.00 176.40 7.2 21.5 2216 SW | 221 78 38 50.4 0.0 13.0
8/8/22 74.6 1529 58.1 2321 0.00 176.40 5.0 21.2 0012 SSW | 205 74 35 52.3 0.0 13.0
8/7/22 76.1 1543 56.8 0547 0.00 176.40 5.5 20.3 2337 SSW | 206 78 33 53.7 0.0 13.0
8/6/22 72.8 1624 52.1 0542 0.00 176.40 6.1 19.7 0457 SSW | 202 99 34 53.4 0.0 13.1
8/5/22 64.2 1648 52.0 2234 0.48 176.40 4.2 19.0 1949 WSW | 251 100 57 53.8 0.0 13.1
8/4/22 76.0 1444 58.3 0557 0.00 175.90 4.6 20.8 1737 WSW | 249 65 39 54.6 0.0 13.0
8/3/22 77.0 1515 55.0 0435 0.00 175.90 4.0 17.6 1958 SW | 223 80 37 55.0 0.0 13.0
8/2/22 72.3 1544 53.4 0514 0.00 175.90 5.4 18.3 1621 NW | 307 79 45 53.4 0.0 13.0
8/1/22 64.5 1515 54.1 2306 0.00 175.90 9.9 23.8 0646 SW | 220 82 55 52.3 0.0 13.1
7/31/22 75.9 1317 59.2 2354 0.00 175.90 6.5 19.2 1702 WSW | 248 72 36 55.4 0.0 13.0
7/30/22 84.0 1359 65.2 2007 0.00 175.90 4.8 18.6 1522 NW | 307 63 15 53.9 0.0 13.0
7/29/22 83.3 1601 66.8 0445 0.00 175.90 4.7 19.6 1939 NNW | 348 53 19 53.1 0.0 13.0
7/28/22 83.4 1649 63.2 0433 0.00 175.90 5.2 17.6 0013 NNE | 25 59 16 53.2 0.0 13.0
7/27/22 80.7 1320 62.3 0537 0.00 175.90 4.4 17.7 2302 NNE | 20 63 23 54.6 0.0 13.0
7/26/22 75.4 1625 60.3 0649 0.00 175.90 4.3 15.9 0022 SSW | 205 60 16 49.5 0.0 13.0
7/25/22 80.1 1514 61.1 0545 0.00 175.90 4.1 18.6 1922 WSW | 242 51 18 50.1 0.0 13.0
7/24/22 77.2 1322 57.4 0412 0.00 175.90 3.0 14.2 1730 S | 181 38 18 47.0 0.0 13.0
7/23/22 73.9 1620 58.2 0450 0.00 175.90 4.8 20.8 1221 SW | 216 29 11 43.8 0.0 13.0
7/22/22 72.3 1603 54.9 0602 0.00 175.90 8.1 22.6 1613 SSW | 212 28 12 42.6 0.0 13.0
7/21/22 77.6 1244 58.7 2141 0.00 175.90 5.0 22.7 2316 S | 187 34 14 46.1 0.0 13.0
7/20/22 76.8 1530 57.5 0226 0.00 175.90 6.3 19.1 1807 NW | 313 58 15 50.1 0.0 13.0
7/19/22 72.8 1641 59.5 0507 0.00 175.90 7.6 19.1 1334 SW | 222 57 36 51.9 0.0 13.0
Max 84.0 - 66.8 - 0.48 176.50 9.9 24.1 - - 100 57 55.4 0.0 13.1
Avg - - - - - - 5.7 - - - - - 50.2 - -
Min 64.2 - 51.9 - 0.00 175.90 2.6 14.2 - - 28 5 42.6 0.0 13.0
Calm: 1.0%
Calm: 0.0%